Time;durP1;ratioP1;P1;durP2;ratioP2;P2;SDS_P1;SDS_P2;PMS_P1;PMS_P2;Temp;Humidity;BMP_temperature;BMP_pressure;BME280_temperature;BME280_humidity;BME280_pressure;Samples;Min_cycle;Max_cycle;Signal;HPM_P1;HPM_P2
2024/03/01 00:00:24;;;;;;;15.27;7.07;;;9.50;99.90;;;;;;5032748;28;20022;-40
2024/03/01 00:02:50;;;;;;;10.60;4.90;;;9.50;99.90;;;;;;5046082;28;20059;-45
2024/03/01 00:05:16;;;;;;;9.40;4.15;;;9.50;99.90;;;;;;5034932;28;20419;-42
2024/03/01 00:07:41;;;;;;;8.13;4.90;;;9.60;99.90;;;;;;5045901;28;20393;-44
2024/03/01 00:10:08;;;;;;;8.07;4.55;;;9.50;99.90;;;;;;5049496;28;20104;-40
2024/03/01 00:12:35;;;;;;;8.30;4.65;;;9.60;99.90;;;;;;5052694;28;20017;-39
2024/03/01 00:15:00;;;;;;;7.00;4.38;;;9.50;99.90;;;;;;5051824;28;20466;-38
2024/03/01 00:17:26;;;;;;;8.15;4.65;;;9.50;99.90;;;;;;5050747;28;20025;-40
2024/03/01 00:19:52;;;;;;;8.50;3.60;;;9.50;99.90;;;;;;5052390;28;20096;-42
2024/03/01 00:22:18;;;;;;;11.60;4.22;;;9.50;99.90;;;;;;5052622;28;20087;-40
2024/03/01 00:24:44;;;;;;;9.93;4.55;;;9.50;99.90;;;;;;5033377;28;20057;-42
2024/03/01 00:27:09;;;;;;;6.85;3.53;;;9.50;99.90;;;;;;5032443;28;20459;-41
2024/03/01 00:29:37;;;;;;;8.82;4.07;;;9.50;99.90;;;;;;5032418;28;20544;-37
2024/03/01 00:32:03;;;;;;;8.90;3.97;;;9.60;99.90;;;;;;5032964;28;20084;-37
2024/03/01 00:34:29;;;;;;;8.27;4.03;;;9.60;99.90;;;;;;5032474;28;20029;-41
2024/03/01 00:36:55;;;;;;;8.40;3.88;;;9.60;99.90;;;;;;5048186;28;20543;-40
2024/03/01 00:39:20;;;;;;;10.65;4.50;;;9.60;99.90;;;;;;5037992;28;20090;-40
2024/03/01 00:41:46;;;;;;;6.22;3.60;;;9.60;99.90;;;;;;5039380;28;20026;-37
2024/03/01 00:44:12;;;;;;;5.75;3.45;;;9.60;99.90;;;;;;5032500;28;20037;-51
2024/03/01 00:46:37;;;;;;;6.72;2.92;;;9.60;99.90;;;;;;5032410;28;20552;-51
2024/03/01 00:49:03;;;;;;;11.40;3.88;;;9.60;99.90;;;;;;5032829;28;20193;-49
2024/03/01 00:51:29;;;;;;;9.43;3.55;;;9.60;99.90;;;;;;5032390;28;20021;-51
2024/03/01 00:53:54;;;;;;;6.90;3.78;;;9.60;99.90;;;;;;5032208;28;20026;-49
2024/03/01 00:56:20;;;;;;;8.93;3.28;;;9.60;99.90;;;;;;5042048;28;20047;-52
2024/03/01 00:58:46;;;;;;;8.02;4.07;;;9.60;99.90;;;;;;5055842;28;20075;-51
2024/03/01 01:01:12;;;;;;;7.60;3.65;;;9.60;99.90;;;;;;5047299;28;20028;-51
2024/03/01 01:03:38;;;;;;;4.10;3.03;;;9.60;99.90;;;;;;5036310;28;20478;-49
2024/03/01 01:06:03;;;;;;;4.00;3.10;;;9.70;99.90;;;;;;5036633;28;20026;-50
2024/03/01 01:08:29;;;;;;;9.63;4.07;;;9.70;99.90;;;;;;5035827;28;20030;-49
2024/03/01 01:10:55;;;;;;;6.05;3.75;;;9.70;99.90;;;;;;5036073;28;20095;-47
2024/03/01 01:13:20;;;;;;;7.43;3.53;;;9.60;99.90;;;;;;5035862;28;20473;-50
2024/03/01 01:15:46;;;;;;;3.53;2.72;;;9.60;99.90;;;;;;5035961;28;20389;-49
2024/03/01 01:18:16;;;;;;;3.80;2.63;;;9.60;99.90;;;;;;5038413;28;20382;-48
2024/03/01 01:20:42;;;;;;;4.93;3.00;;;9.60;99.90;;;;;;5056135;28;20031;-52
2024/03/01 01:23:07;;;;;;;5.53;3.47;;;9.60;99.90;;;;;;5044918;28;20604;-49
2024/03/01 01:25:33;;;;;;;6.32;3.30;;;9.60;99.90;;;;;;5035743;28;20101;-46
2024/03/01 01:27:59;;;;;;;3.85;2.60;;;9.60;99.90;;;;;;5035352;28;20025;-51
2024/03/01 01:30:25;;;;;;;9.38;3.58;;;9.60;99.90;;;;;;5054403;28;20017;-49
2024/03/01 01:32:51;;;;;;;6.10;3.10;;;9.60;99.90;;;;;;5045930;28;20029;-52
2024/03/01 01:35:17;;;;;;;5.68;3.08;;;9.70;99.90;;;;;;5045259;28;20088;-51
2024/03/01 01:37:43;;;;;;;4.53;3.15;;;9.70;99.90;;;;;;5051396;28;20040;-51
2024/03/01 01:40:11;;;;;;;4.68;3.15;;;9.70;99.90;;;;;;5038402;28;20374;-48
2024/03/01 01:42:37;;;;;;;7.15;2.78;;;9.70;99.90;;;;;;5052487;28;20025;-50
2024/03/01 01:45:04;;;;;;;11.27;3.28;;;9.80;99.90;;;;;;5054076;28;20108;-52
2024/03/01 01:47:30;;;;;;;3.42;2.50;;;9.70;99.90;;;;;;5051592;28;20494;-50
2024/03/01 01:49:55;;;;;;;21.45;8.00;;;9.70;99.90;;;;;;5035551;28;20372;-50
2024/03/01 01:52:22;;;;;;;3.83;2.63;;;9.70;99.90;;;;;;5033957;28;20032;-48
2024/03/01 01:54:48;;;;;;;6.70;3.05;;;9.70;99.90;;;;;;5035341;28;20112;-36
2024/03/01 01:57:13;;;;;;;4.15;2.97;;;9.70;99.90;;;;;;5042654;28;20033;-37
2024/03/01 01:59:42;;;;;;;4.07;2.83;;;9.70;99.90;;;;;;5054944;28;20029;-37
2024/03/01 02:02:08;;;;;;;5.40;2.63;;;9.70;99.90;;;;;;5046464;28;20495;-36
2024/03/01 02:04:33;;;;;;;5.72;3.05;;;9.70;99.90;;;;;;5034530;28;20276;-38
2024/03/01 02:07:04;;;;;;;5.15;2.55;;;9.70;99.90;;;;;;5033729;28;20143;-38
2024/03/01 02:09:30;;;;;;;3.38;2.58;;;9.70;99.90;;;;;;5034104;28;20032;-37
2024/03/01 02:11:56;;;;;;;4.32;3.05;;;9.70;99.90;;;;;;5033690;28;20120;-46
2024/03/01 02:14:21;;;;;;;4.10;3.00;;;9.70;99.90;;;;;;5035297;28;20100;-38
2024/03/01 02:16:47;;;;;;;5.07;2.88;;;9.80;99.90;;;;;;5034877;28;20033;-38
2024/03/01 02:19:17;;;;;;;2.78;2.22;;;9.80;99.90;;;;;;5033508;28;20124;-36
2024/03/01 02:21:53;;;;;;;5.85;2.53;;;9.80;99.90;;;;;;5035075;28;20048;-37
2024/03/01 02:24:18;;;;;;;7.05;2.60;;;9.70;99.90;;;;;;5034965;28;20037;-36
2024/03/01 02:26:44;;;;;;;3.85;2.50;;;9.80;99.90;;;;;;5034895;28;20029;-36
2024/03/01 02:29:10;;;;;;;4.05;2.33;;;9.80;99.90;;;;;;5034370;28;20038;-37
2024/03/01 02:31:36;;;;;;;6.05;3.15;;;9.80;99.90;;;;;;5049448;28;20103;-36
2024/03/01 02:34:01;;;;;;;4.65;2.60;;;9.80;99.90;;;;;;5053658;28;20029;-39
2024/03/01 02:36:27;;;;;;;8.25;2.63;;;9.80;99.90;;;;;;5043268;28;20436;-37
2024/03/01 02:38:53;;;;;;;6.85;2.78;;;9.80;99.90;;;;;;5052984;28;20029;-39
2024/03/01 02:41:19;;;;;;;5.30;2.30;;;9.80;99.90;;;;;;5046563;28;20025;-36
2024/03/01 02:43:44;;;;;;;3.00;2.30;;;9.80;99.90;;;;;;5034257;28;20478;-36
2024/03/01 02:46:10;;;;;;;3.25;2.22;;;9.80;99.90;;;;;;5034227;28;20057;-37
2024/03/01 02:48:36;;;;;;;5.07;2.67;;;9.80;99.90;;;;;;5034760;28;20026;-37
2024/03/01 02:51:01;;;;;;;4.55;2.90;;;9.80;99.90;;;;;;5034211;28;20025;-37
2024/03/01 02:53:27;;;;;;;6.43;3.70;;;9.90;99.90;;;;;;5034094;28;20021;-36
2024/03/01 02:55:53;;;;;;;3.08;2.78;;;9.90;99.90;;;;;;5034410;28;20052;-35
2024/03/01 02:58:18;;;;;;;11.32;4.32;;;9.90;99.90;;;;;;5034096;28;20060;-36
2024/03/01 03:00:44;;;;;;;2.88;2.25;;;9.90;99.90;;;;;;5034081;28;20108;-37
2024/03/01 03:03:10;;;;;;;4.57;3.00;;;9.90;99.90;;;;;;5033892;28;20068;-37
2024/03/01 03:05:35;;;;;;;3.22;2.45;;;9.90;99.90;;;;;;5048834;28;20027;-52
2024/03/01 03:08:05;;;;;;;3.58;2.17;;;9.80;99.90;;;;;;5051716;28;20040;-50
2024/03/01 03:10:31;;;;;;;6.50;2.88;;;9.80;99.90;;;;;;5038176;28;20509;-52
2024/03/01 03:12:56;;;;;;;4.40;2.70;;;9.70;99.90;;;;;;5033813;28;20028;-49
2024/03/01 03:15:23;;;;;;;3.17;2.42;;;9.80;99.90;;;;;;5033748;28;20453;-52
2024/03/01 03:17:49;;;;;;;3.28;2.35;;;9.80;99.90;;;;;;5033697;28;20031;-52
2024/03/01 03:20:18;;;;;;;6.05;2.42;;;9.70;99.90;;;;;;5033391;28;20026;-50
2024/03/01 03:22:47;;;;;;;6.30;3.50;;;9.70;99.90;;;;;;5034196;28;20486;-51
2024/03/01 03:25:13;;;;;;;3.90;2.75;;;9.70;99.90;;;;;;5033501;28;20061;-52
2024/03/01 03:27:40;;;;;;;2.47;1.10;;;9.60;99.90;;;;;;5033259;28;20036;-51
2024/03/01 03:30:07;;;;;;;1.30;0.88;;;9.20;99.90;;;;;;5033609;28;20068;-48
2024/03/01 03:32:35;;;;;;;3.15;0.75;;;8.90;99.90;;;;;;5033680;28;20036;-56
2024/03/01 03:35:01;;;;;;;5.50;0.70;;;8.70;99.90;;;;;;5033582;28;20025;-53
2024/03/01 03:37:27;;;;;;;1.98;0.77;;;8.40;99.90;;;;;;5033209;28;20063;-53
2024/03/01 03:39:52;;;;;;;0.98;0.63;;;8.40;99.90;;;;;;5034073;28;20359;-52
2024/03/01 03:42:18;;;;;;;2.05;0.90;;;8.10;99.90;;;;;;5048948;28;20025;-51
2024/03/01 03:44:43;;;;;;;4.50;2.90;;;7.90;99.90;;;;;;5053062;28;20021;-51
2024/03/01 03:47:09;;;;;;;6.93;1.45;;;7.60;99.90;;;;;;5052136;28;20036;-48
2024/03/01 03:49:38;;;;;;;0.98;0.93;;;7.50;99.90;;;;;;5052959;28;20364;-53
2024/03/01 03:52:04;;;;;;;0.73;0.68;;;7.40;99.90;;;;;;5040495;28;20524;-50
2024/03/01 03:54:30;;;;;;;0.90;0.52;;;7.30;99.90;;;;;;5031883;28;20033;-53
2024/03/01 03:56:56;;;;;;;2.38;0.70;;;7.20;99.90;;;;;;5033448;28;20116;-50
2024/03/01 03:59:21;;;;;;;0.65;0.60;;;7.20;99.90;;;;;;5033275;28;20073;-55
2024/03/01 04:01:49;;;;;;;2.30;1.40;;;7.30;99.90;;;;;;5032973;28;20504;-50
2024/03/01 04:04:15;;;;;;;0.30;0.30;;;7.20;99.90;;;;;;5032889;28;20064;-52
2024/03/01 04:06:41;;;;;;;3.17;0.25;;;7.20;99.90;;;;;;5045664;28;20028;-50
2024/03/01 04:09:10;;;;;;;0.63;0.25;;;7.10;99.90;;;;;;5052764;28;20367;-53
2024/03/01 04:11:36;;;;;;;0.50;0.20;;;7.10;99.90;;;;;;5040698;28;20033;-51
2024/03/01 04:14:02;;;;;;;1.15;0.32;;;7.10;99.90;;;;;;5051134;28;20465;-50
2024/03/01 04:16:29;;;;;;;2.40;0.30;;;7.20;99.90;;;;;;5052698;28;20033;-38
2024/03/01 04:18:55;;;;;;;0.63;0.30;;;7.20;99.90;;;;;;5052633;28;20033;-37
2024/03/01 04:21:20;;;;;;;1.10;0.40;;;7.20;99.90;;;;;;5043459;28;20367;-38
2024/03/01 04:23:48;;;;;;;1.15;0.32;;;7.20;99.90;;;;;;5032707;28;20021;-38
2024/03/01 04:26:13;;;;;;;0.55;0.30;;;7.20;99.90;;;;;;5034907;28;20040;-38
2024/03/01 04:28:39;;;;;;;2.25;0.40;;;7.20;99.90;;;;;;5052506;28;20497;-39
2024/03/01 04:31:06;;;;;;;1.65;0.30;;;7.20;99.90;;;;;;5031315;28;20429;-39
2024/03/01 04:33:38;;;;;;;6.53;0.50;;;7.10;99.90;;;;;;5038668;28;20033;-38
2024/03/01 04:36:04;;;;;;;5.40;1.67;;;7.10;99.90;;;;;;5044174;28;20033;-37
2024/03/01 04:38:30;;;;;;;15.27;1.00;;;7.20;99.90;;;;;;5059092;28;20492;-38
2024/03/01 04:40:55;;;;;;;5.13;0.80;;;7.20;99.90;;;;;;5054004;28;20389;-36
2024/03/01 04:43:21;;;;;;;0.85;0.40;;;7.20;99.90;;;;;;5039132;28;20032;-37
2024/03/01 04:45:47;;;;;;;0.55;0.40;;;7.30;99.90;;;;;;5039359;28;20026;-37
2024/03/01 04:48:12;;;;;;;3.85;0.70;;;7.40;99.90;;;;;;5039075;28;20498;-36
2024/03/01 04:50:38;;;;;;;6.85;0.55;;;7.40;99.90;;;;;;5051304;28;20094;-38
2024/03/01 04:53:04;;;;;;;2.08;0.82;;;7.40;99.90;;;;;;5059261;28;20024;-38
2024/03/01 04:55:29;;;;;;;3.38;0.77;;;7.40;99.90;;;;;;5055767;28;20465;-37
2024/03/01 04:57:55;;;;;;;1.65;0.60;;;7.40;99.90;;;;;;5039292;28;20025;-37
2024/03/01 05:00:23;;;;;;;3.47;1.15;;;7.50;99.90;;;;;;5038974;28;20021;-41
2024/03/01 05:02:49;;;;;;;1.10;0.70;;;7.40;99.90;;;;;;5039376;28;20079;-37
2024/03/01 05:05:18;;;;;;;2.83;1.15;;;7.50;99.90;;;;;;5038704;28;20100;-37
2024/03/01 05:07:48;;;;;;;5.13;0.75;;;7.50;99.90;;;;;;5038918;28;20025;-50
2024/03/01 05:10:15;;;;;;;1.85;0.85;;;7.50;99.90;;;;;;5038660;28;20025;-52
2024/03/01 05:12:42;;;;;;;3.38;0.90;;;7.50;99.90;;;;;;5038868;28;20021;-53
2024/03/01 05:15:08;;;;;;;8.23;1.33;;;7.50;99.90;;;;;;5038752;28;20390;-51
2024/03/01 05:17:36;;;;;;;12.75;1.35;;;7.50;99.90;;;;;;5038832;28;20033;-51
2024/03/01 05:20:08;;;;;;;6.88;0.75;;;7.50;99.90;;;;;;5040481;28;20049;-53
2024/03/01 05:22:36;;;;;;;1.52;0.80;;;7.50;99.90;;;;;;5057543;28;20032;-52
2024/03/01 05:25:14;;;;;;;3.35;0.65;;;7.50;99.90;;;;;;5058336;28;20112;-55
2024/03/01 05:27:41;;;;;;;1.73;0.47;;;7.60;99.90;;;;;;5058820;28;20428;-55
2024/03/01 05:30:11;;;;;;;2.63;0.75;;;7.50;99.90;;;;;;5049014;28;20104;-52
2024/03/01 05:32:41;;;;;;;5.53;0.90;;;7.50;99.90;;;;;;5058872;28;20402;-53
2024/03/01 05:35:08;;;;;;;6.70;0.95;;;7.60;99.90;;;;;;5051647;28;20052;-51
2024/03/01 05:37:34;;;;;;;0.80;0.65;;;7.60;99.90;;;;;;5039095;28;20029;-51
2024/03/01 05:40:04;;;;;;;1.30;0.90;;;7.50;99.90;;;;;;5038466;28;20044;-52
2024/03/01 05:42:30;;;;;;;2.55;0.60;;;7.50;99.90;;;;;;5038690;28;20450;-51
2024/03/01 05:44:56;;;;;;;0.60;0.60;;;7.50;99.90;;;;;;5034402;28;20041;-51
2024/03/01 05:47:22;;;;;;;7.80;1.50;;;7.40;99.90;;;;;;5035263;28;20039;-49
2024/03/01 05:49:48;;;;;;;3.72;1.38;;;7.40;99.90;;;;;;5051923;28;20032;-48
2024/03/01 05:52:14;;;;;;;1.48;1.10;;;7.30;99.90;;;;;;5033995;28;20097;-54
2024/03/01 05:54:40;;;;;;;1.20;1.10;;;7.30;99.90;;;;;;5035914;28;20080;-51
2024/03/01 05:57:06;;;;;;;4.00;1.30;;;7.20;99.90;;;;;;5035335;28;20037;-49
2024/03/01 05:59:32;;;;;;;6.18;1.58;;;7.20;99.90;;;;;;5035091;28;20037;-50
2024/03/01 06:01:58;;;;;;;5.78;1.67;;;7.10;99.90;;;;;;5033748;28;20401;-49
2024/03/01 06:04:23;;;;;;;1.20;1.00;;;7.10;99.90;;;;;;5035114;28;20120;-46
2024/03/01 06:06:49;;;;;;;1.60;1.35;;;7.10;99.90;;;;;;5037957;28;20450;-52
2024/03/01 06:09:16;;;;;;;5.18;1.33;;;7.00;99.90;;;;;;5054967;28;20559;-53
2024/03/01 06:11:42;;;;;;;4.70;1.40;;;6.90;99.90;;;;;;5046945;28;20454;-52
2024/03/01 06:14:07;;;;;;;7.07;1.55;;;6.90;99.90;;;;;;5034798;28;20022;-52
2024/03/01 06:16:33;;;;;;;6.53;2.28;;;6.90;99.90;;;;;;5035164;28;20041;-52
2024/03/01 06:18:59;;;;;;;1.70;1.20;;;6.80;99.90;;;;;;5034853;28;20029;-52
2024/03/01 06:21:25;;;;;;;2.08;1.45;;;6.80;99.90;;;;;;5046719;28;20036;-51
2024/03/01 06:23:51;;;;;;;2.05;1.30;;;6.70;99.90;;;;;;5054710;28;20170;-49
2024/03/01 06:26:17;;;;;;;5.53;1.40;;;6.70;99.90;;;;;;5054539;28;20108;-51
2024/03/01 06:28:43;;;;;;;4.65;1.95;;;6.70;99.90;;;;;;5046469;28;20045;-52
2024/03/01 06:31:10;;;;;;;3.72;1.65;;;6.70;99.90;;;;;;5034685;28;20037;-52
2024/03/01 06:33:35;;;;;;;1.05;1.00;;;6.70;99.90;;;;;;5034615;28;20466;-50
2024/03/01 06:36:02;;;;;;;6.47;1.50;;;6.70;99.90;;;;;;5035405;28;20026;-52
2024/03/01 06:38:28;;;;;;;8.38;2.10;;;6.70;99.90;;;;;;5034727;28;20151;-50
2024/03/01 06:40:54;;;;;;;2.03;1.52;;;6.70;99.90;;;;;;5034280;28;20057;-50
2024/03/01 06:43:19;;;;;;;4.28;1.20;;;6.70;99.90;;;;;;5034371;28;20040;-53
2024/03/01 06:45:45;;;;;;;2.90;1.38;;;6.60;99.90;;;;;;5034700;28;20034;-54
2024/03/01 06:48:11;;;;;;;1.60;1.13;;;6.60;99.90;;;;;;5034614;28;20032;-56
2024/03/01 06:50:37;;;;;;;4.05;1.13;;;6.60;99.90;;;;;;5034403;28;20453;-53
2024/03/01 06:53:03;;;;;;;1.90;1.65;;;6.70;99.90;;;;;;5034102;28;20104;-52
2024/03/01 06:55:29;;;;;;;1.80;1.45;;;6.60;99.90;;;;;;5033874;28;20121;-51
2024/03/01 06:57:54;;;;;;;4.28;1.23;;;6.60;99.90;;;;;;5049295;28;20476;-49
2024/03/01 07:00:20;;;;;;;2.30;1.73;;;6.50;99.90;;;;;;5053665;28;20051;-53
2024/03/01 07:02:46;;;;;;;4.57;1.63;;;6.50;99.90;;;;;;5046313;28;20029;-53
2024/03/01 07:05:12;;;;;;;8.50;1.45;;;6.50;99.90;;;;;;5051793;28;20025;-51
2024/03/01 07:07:38;;;;;;;4.88;1.65;;;6.50;99.90;;;;;;5053694;28;20039;-51
2024/03/01 07:10:06;;;;;;;5.18;1.67;;;6.50;99.90;;;;;;5054013;28;20021;-48
2024/03/01 07:12:31;;;;;;;2.80;1.92;;;6.40;99.90;;;;;;5052785;28;20474;-52
2024/03/01 07:14:57;;;;;;;3.40;1.98;;;6.50;99.90;;;;;;5052616;28;20036;-53
2024/03/01 07:17:23;;;;;;;5.75;1.52;;;6.50;99.90;;;;;;5053638;28;20036;-51
2024/03/01 07:19:51;;;;;;;7.95;1.55;;;6.50;99.90;;;;;;5044542;28;20034;-49
2024/03/01 07:22:17;;;;;;;6.10;1.65;;;6.50;99.90;;;;;;5033639;28;20083;-49
2024/03/01 07:24:42;;;;;;;5.43;1.42;;;6.50;99.90;;;;;;5041478;28;20024;-50
2024/03/01 07:27:08;;;;;;;2.25;1.70;;;6.50;99.90;;;;;;5036568;28;20029;-49
2024/03/01 07:29:34;;;;;;;3.85;1.45;;;6.60;99.90;;;;;;5039647;28;20068;-52
2024/03/01 07:31:59;;;;;;;4.65;1.60;;;6.50;99.90;;;;;;5037860;28;20022;-51
2024/03/01 07:34:25;;;;;;;5.45;1.35;;;6.60;99.90;;;;;;5033510;28;20087;-53
2024/03/01 07:36:51;;;;;;;2.10;1.73;;;6.60;99.90;;;;;;5044050;28;20115;-38
2024/03/01 07:39:17;;;;;;;5.40;2.08;;;6.60;99.90;;;;;;5050966;28;20099;-38
2024/03/01 07:41:43;;;;;;;2.72;2.25;;;6.70;99.90;;;;;;5053518;28;20079;-37
2024/03/01 07:44:08;;;;;;;7.43;2.65;;;6.60;99.90;;;;;;5051792;28;20393;-37
2024/03/01 07:46:37;;;;;;;4.82;2.90;;;6.70;99.90;;;;;;5041212;28;20474;-52
2024/03/01 07:49:03;;;;;;;10.50;2.53;;;6.70;99.90;;;;;;5046268;28;20477;-52
2024/03/01 07:51:28;;;;;;;5.30;2.70;;;6.70;99.90;;;;;;5036395;28;20083;-37
2024/03/01 07:53:54;;;;;;;6.40;3.45;;;6.80;99.90;;;;;;5033639;28;20121;-37
2024/03/01 07:56:23;;;;;;;7.22;3.45;;;6.70;99.90;;;;;;5032978;28;20040;-38
2024/03/01 07:59:00;;;;;;;5.28;3.38;;;6.80;99.90;;;;;;5033130;28;20025;-36
2024/03/01 08:01:26;;;;;;;8.30;3.80;;;6.70;99.90;;;;;;5050362;28;20386;-37
2024/03/01 08:03:51;;;;;;;8.77;3.67;;;6.80;99.90;;;;;;5052860;28;20037;-37
2024/03/01 08:06:17;;;;;;;9.98;4.15;;;6.90;99.90;;;;;;5038653;28;20029;-37
2024/03/01 08:08:47;;;;;;;9.35;3.53;;;6.90;99.90;;;;;;5031646;28;20084;-38
2024/03/01 08:11:46;;;;;;;7.88;4.70;;;6.90;99.90;;;;;;5033167;28;20021;-41
2024/03/01 08:14:23;;;;;;;13.85;3.97;;;6.90;99.90;;;;;;5031730;28;20375;-39
2024/03/01 08:16:54;;;;;;;10.88;3.72;;;7.00;99.90;;;;;;5033131;28;20505;-37
2024/03/01 08:19:21;;;;;;;13.15;4.40;;;7.10;99.90;;;;;;5035295;28;20040;-38
2024/03/01 08:21:48;;;;;;;9.87;4.83;;;7.10;99.90;;;;;;5043456;28;20029;-38
2024/03/01 08:24:24;;;;;;;10.60;5.55;;;7.10;99.90;;;;;;5041410;28;20068;-39
2024/03/01 08:26:53;;;;;;;11.93;5.13;;;7.20;99.90;;;;;;5047809;28;20033;-37
2024/03/01 08:29:18;;;;;;;13.07;6.13;;;7.20;99.90;;;;;;5036826;28;20147;-38
2024/03/01 08:31:45;;;;;;;10.48;5.75;;;7.20;99.90;;;;;;5052837;28;20074;-38
2024/03/01 08:34:31;;;;;;;13.65;5.78;;;7.30;99.90;;;;;;5050316;28;20036;-37
2024/03/01 08:36:57;;;;;;;19.77;6.38;;;7.20;99.90;;;;;;5041399;28;20596;-38
2024/03/01 08:39:24;;;;;;;15.38;6.25;;;7.30;99.90;;;;;;5050688;28;20060;-37
2024/03/01 08:41:52;;;;;;;22.42;6.03;;;7.40;99.90;;;;;;5051683;28;20029;-46
2024/03/01 08:44:38;;;;;;;21.42;7.00;;;7.40;99.90;;;;;;5036736;28;20036;-38
2024/03/01 08:47:06;;;;;;;13.82;6.57;;;7.40;99.90;;;;;;5032108;28;20449;-38
2024/03/01 08:49:46;;;;;;;19.08;6.40;;;7.50;99.90;;;;;;5032210;28;20064;-38
2024/03/01 08:52:39;;;;;;;15.25;5.72;;;7.50;99.90;;;;;;5032715;28;20033;-41
2024/03/01 08:55:30;;;;;;;20.85;6.80;;;7.50;99.90;;;;;;5029981;28;20502;-38
2024/03/01 08:57:57;;;;;;;16.92;5.22;;;7.40;99.90;;;;;;5044518;28;20029;-37
2024/03/01 09:00:43;;;;;;;11.10;4.88;;;7.60;99.90;;;;;;5049024;28;20040;-38
2024/03/01 09:03:17;;;;;;;10.65;5.38;;;7.70;99.90;;;;;;5032385;28;20033;-38
2024/03/01 09:05:43;;;;;;;11.50;4.70;;;7.70;99.90;;;;;;5032285;28;20554;-37
2024/03/01 09:08:22;;;;;;;10.95;4.43;;;7.80;99.90;;;;;;5050752;28;20116;-36
2024/03/01 09:10:51;;;;;;;10.75;4.88;;;7.80;99.90;;;;;;5048681;28;20470;-38
2024/03/01 09:13:17;;;;;;;11.90;4.40;;;7.90;99.90;;;;;;5038485;28;20485;-39
2024/03/01 09:15:45;;;;;;;7.93;4.28;;;8.00;99.90;;;;;;5034195;28;20036;-37
2024/03/01 09:18:26;;;;;;;8.60;4.38;;;8.10;99.90;;;;;;5053118;28;20032;-39
2024/03/01 09:20:51;;;;;;;13.50;4.80;;;8.20;99.90;;;;;;5037191;28;20053;-38
2024/03/01 09:23:17;;;;;;;12.50;3.60;;;8.30;99.90;;;;;;5038383;28;20072;-37
2024/03/01 09:25:49;;;;;;;11.95;4.55;;;8.40;99.90;;;;;;5035505;28;20505;-38
2024/03/01 09:28:16;;;;;;;14.38;4.03;;;8.40;99.90;;;;;;5044895;28;20080;-39
2024/03/01 09:30:45;;;;;;;5.75;3.63;;;8.50;99.90;;;;;;5048478;28;20362;-38
2024/03/01 09:33:14;;;;;;;7.00;3.50;;;8.40;99.90;;;;;;5035702;28;20087;-38
2024/03/01 09:35:41;;;;;;;9.52;3.28;;;8.40;99.90;;;;;;5035934;28;20489;-37
2024/03/01 09:38:08;;;;;;;8.05;3.35;;;8.40;99.90;;;;;;5049437;28;20032;-38
2024/03/01 09:41:26;;;;;;;8.70;3.00;;;8.40;99.90;;;;;;5053555;28;20389;-38
2024/03/01 09:44:06;;;;;;;7.32;3.40;;;8.50;99.90;;;;;;5042102;28;20378;-37
2024/03/01 09:46:51;;;;;;;9.18;3.22;;;8.60;99.90;;;;;;5055432;28;20541;-39
2024/03/01 09:49:30;;;;;;;6.45;3.20;;;8.80;99.90;;;;;;5047567;28;20064;-38
2024/03/01 09:52:16;;;;;;;9.88;3.85;;;9.00;99.90;;;;;;5051530;28;20469;-38
2024/03/01 09:54:59;;;;;;;5.90;2.75;;;9.10;99.90;;;;;;5024251;28;20029;-41
2024/03/01 09:57:38;;;;;;;13.52;3.63;;;9.20;99.90;;;;;;5035394;28;20394;-41
2024/03/01 10:00:24;;;;;;;7.20;2.55;;;9.30;99.90;;;;;;5036028;28;20100;-38
2024/03/01 10:03:11;;;;;;;14.73;2.92;;;9.30;99.90;;;;;;5035215;28;20497;-42
2024/03/01 10:05:46;;;;;;;7.13;2.15;;;9.30;99.90;;;;;;5054518;28;20082;-42
2024/03/01 10:08:32;;;;;;;12.65;3.40;;;9.20;99.90;;;;;;5035092;28;20040;-38
2024/03/01 10:11:45;;;;;;;8.80;2.72;;;9.20;99.90;;;;;;5035146;28;20034;-40
2024/03/01 10:14:33;;;;;;;4.80;2.83;;;9.30;99.90;;;;;;5024063;28;20033;-41
2024/03/01 10:17:14;;;;;;;5.03;2.13;;;9.30;99.90;;;;;;5034961;28;20032;-38
2024/03/01 10:19:49;;;;;;;6.22;3.33;;;9.40;99.90;;;;;;5038719;28;20025;-38
2024/03/01 10:22:30;;;;;;;6.93;3.20;;;9.40;99.90;;;;;;5052795;28;20031;-39
2024/03/01 10:25:21;;;;;;;8.48;2.67;;;9.40;99.90;;;;;;5049757;28;20422;-40
2024/03/01 10:27:55;;;;;;;12.57;2.67;;;9.40;99.90;;;;;;5041320;28;20063;-41
2024/03/01 10:30:35;;;;;;;6.97;3.33;;;9.50;99.90;;;;;;5046990;28;20541;-41
2024/03/01 10:33:07;;;;;;;6.68;3.13;;;9.60;99.90;;;;;;5045246;28;20101;-44
2024/03/01 10:36:08;;;;;;;8.95;2.80;;;9.40;99.90;;;;;;5035041;28;20520;-40
2024/03/01 10:39:07;;;;;;;6.03;2.30;;;9.50;99.90;;;;;;5011364;28;20045;-43
2024/03/01 10:41:58;;;;;;;16.02;3.03;;;9.40;99.90;;;;;;5054230;28;20037;-41
2024/03/01 10:44:43;;;;;;;13.70;3.28;;;9.40;99.90;;;;;;5045941;28;20500;-40
2024/03/01 10:47:23;;;;;;;10.93;2.53;;;9.40;99.90;;;;;;5039174;28;20466;-39
2024/03/01 10:50:07;;;;;;;6.00;2.50;;;9.60;99.90;;;;;;5034308;28;20049;-37
2024/03/01 10:52:38;;;;;;;4.82;2.50;;;9.70;99.90;;;;;;5034021;28;20108;-39
2024/03/01 10:55:10;;;;;;;4.00;2.35;;;9.70;99.90;;;;;;5034244;28;20478;-44
2024/03/01 10:57:46;;;;;;;5.95;2.00;;;9.80;99.90;;;;;;5034743;28;20021;-40
2024/03/01 11:00:16;;;;;;;3.05;2.28;;;9.70;99.90;;;;;;5034812;28;20033;-40
2024/03/01 11:03:00;;;;;;;5.05;2.50;;;9.80;99.90;;;;;;5047458;28;20390;-38
2024/03/01 11:05:54;;;;;;;8.23;4.50;;;9.80;99.90;;;;;;5054088;28;20485;-38
2024/03/01 11:08:48;;;;;;;5.15;2.53;;;9.80;99.90;;;;;;5041423;28;20045;-38
2024/03/01 11:11:19;;;;;;;12.13;2.95;;;9.90;99.90;;;;;;5030910;28;20072;-38
2024/03/01 11:13:49;;;;;;;2.72;2.22;;;9.90;99.90;;;;;;5033679;28;20029;-38
2024/03/01 11:16:22;;;;;;;9.80;2.13;;;9.70;99.90;;;;;;5038303;28;20394;-53
2024/03/01 11:18:53;;;;;;;4.10;2.20;;;9.70;99.90;;;;;;5052930;28;20115;-55
2024/03/01 11:21:23;;;;;;;2.60;1.70;;;9.80;99.90;;;;;;5052692;28;20025;-53
2024/03/01 11:23:57;;;;;;;4.38;2.28;;;9.80;99.90;;;;;;5050518;28;20044;-53
2024/03/01 11:26:33;;;;;;;2.47;1.75;;;9.80;99.90;;;;;;5041723;28;20048;-54
2024/03/01 11:29:05;;;;;;;5.10;2.10;;;9.80;99.90;;;;;;5051388;28;20056;-53
2024/03/01 11:31:31;;;;;;;3.20;2.40;;;9.90;99.90;;;;;;5050491;28;20017;-54
2024/03/01 11:34:13;;;;;;;4.25;2.47;;;9.90;99.90;;;;;;5045149;28;20053;-55
2024/03/01 11:36:43;;;;;;;11.30;2.40;;;10.10;99.90;;;;;;5033345;28;20064;-52
2024/03/01 11:39:12;;;;;;;3.88;1.67;;;10.20;99.90;;;;;;5033474;28;20030;-54
2024/03/01 11:41:59;;;;;;;4.85;2.33;;;10.20;99.90;;;;;;5032337;28;20037;-54
2024/03/01 11:44:51;;;;;;;3.20;2.17;;;10.20;99.90;;;;;;5033806;28;20501;-53
2024/03/01 11:47:29;;;;;;;6.57;2.08;;;10.20;99.90;;;;;;5039310;28;20128;-55
2024/03/01 11:50:13;;;;;;;2.25;1.85;;;10.20;99.90;;;;;;5051695;28;20405;-54
2024/03/01 11:52:41;;;;;;;4.78;1.70;;;10.20;99.90;;;;;;5037611;28;20033;-54
2024/03/01 11:55:25;;;;;;;3.20;1.65;;;10.10;99.90;;;;;;5053151;28;20047;-55
2024/03/01 11:57:57;;;;;;;2.60;1.67;;;10.10;99.90;;;;;;5053097;28;20047;-51
2024/03/01 12:00:41;;;;;;;3.10;1.10;;;10.20;99.90;;;;;;5051259;28;20389;-54
2024/03/01 12:03:25;;;;;;;2.40;1.33;;;10.20;99.90;;;;;;5052908;28;20515;-52
2024/03/01 12:06:17;;;;;;;12.63;2.95;;;10.30;99.90;;;;;;5052744;28;20397;-50
2024/03/01 12:09:13;;;;;;;4.05;2.03;;;10.50;99.90;;;;;;5052379;28;20484;-55
2024/03/01 12:11:51;;;;;;;1.48;0.90;;;10.50;99.90;;;;;;5051744;28;20025;-55
2024/03/01 12:14:23;;;;;;;2.63;1.10;;;10.60;99.90;;;;;;5053097;28;20516;-54
2024/03/01 12:16:58;;;;;;;2.13;1.35;;;10.70;99.90;;;;;;5043083;28;20033;-53
2024/03/01 12:19:30;;;;;;;1.50;0.95;;;10.70;99.90;;;;;;5032989;28;20036;-54
2024/03/01 12:22:31;;;;;;;1.23;1.08;;;10.70;99.90;;;;;;5047811;28;20028;-55
2024/03/01 12:25:00;;;;;;;6.05;1.05;;;10.80;99.90;;;;;;5051670;28;20405;-54
2024/03/01 12:28:08;;;;;;;1.55;0.50;;;10.70;99.90;;;;;;5051333;28;20036;-42
2024/03/01 12:30:37;;;;;;;5.22;0.65;;;10.70;99.90;;;;;;5050446;28;20508;-43
2024/03/01 12:33:27;;;;;;;6.45;1.17;;;10.70;99.90;;;;;;5039945;28;20037;-41
2024/03/01 12:36:03;;;;;;;1.48;0.70;;;10.80;99.90;;;;;;5032413;28;20444;-44
2024/03/01 12:38:41;;;;;;;2.15;1.15;;;10.90;99.90;;;;;;5035149;28;20433;-48
2024/03/01 12:41:50;;;;;;;2.88;0.75;;;11.00;99.90;;;;;;5052487;28;20367;-39
2024/03/01 12:44:22;;;;;;;3.13;0.82;;;11.20;99.90;;;;;;5012810;28;20041;-50
2024/03/01 12:47:25;;;;;;;8.60;1.35;;;11.20;99.90;;;;;;5020832;28;20040;-50
2024/03/01 12:49:57;;;;;;;7.70;0.73;;;11.10;99.90;;;;;;5039829;28;20090;-40
2024/03/01 12:52:53;;;;;;;3.17;0.70;;;11.10;99.90;;;;;;5052647;28;20485;-44
2024/03/01 12:55:36;;;;;;;1.90;0.70;;;11.00;99.90;;;;;;5056453;28;20052;-44
2024/03/01 12:58:15;;;;;;;2.60;0.73;;;10.70;99.90;;;;;;5049831;28;20164;-45
2024/03/01 13:01:03;;;;;;;5.50;0.88;;;10.60;99.90;;;;;;5035652;28;20033;-47
2024/03/01 13:03:34;;;;;;;2.38;0.45;;;10.50;99.90;;;;;;5036171;28;20029;-41
2024/03/01 13:06:01;;;;;;;2.88;0.77;;;10.40;99.90;;;;;;5036211;28;20030;-39
2024/03/01 13:08:39;;;;;;;7.18;0.57;;;10.30;99.90;;;;;;5034695;28;20025;-40
2024/03/01 13:11:09;;;;;;;6.28;0.70;;;10.30;99.90;;;;;;5036184;28;20092;-45
2024/03/01 13:13:35;;;;;;;3.17;0.50;;;10.20;99.90;;;;;;5036400;28;20073;-44